Terminal Aerodrome Forecast
Issued by NWS

Home | Current Version | Previous Version | Text Only | Print | Product List | Glossary On
Versions: 1 2 3 4 5 6 7 8 9 10 11 12 13 14 15
000
FTUS43 KDDC 202339
TAFHYS
TAF
KHYS 202339Z 2100/2124 17023G31KT P6SM SCT130
     FM211100 19019KT P6SM BKN090
     FM211300 23017KT P6SM BKN050
     FM211500 29016G24KT P6SM BKN060
     FM211800 33018G26KT P6SM BKN150=

USA.gov is the U.S. government's official web portal to all federal, state and local government web resources and services.